Terminal Aerodrome Forecast
Issued by NWS Cleveland, OH

Home | Current Version | Previous Version | Graphics & Text | Print | Product List | Glossary Off
Versions: 1 2 3 4 5 6 7 8 9 10 11 12 13 14 15 16 17 18 19

000
FTUS41 KCLE 212352
TAFYNG
TAF
KYNG 212352Z 2200/2224 19005KT 6SM BR OVC015
      TEMPO 2200/2202 4SM BR OVC008
     FM220200 17005KT 4SM BR OVC008
      TEMPO 2202/2206 2SM -SHRA BR OVC004
     FM220600 15005KT 4SM BR OVC004
      TEMPO 2206/2210 2SM -SHRA BR
     FM221400 17008KT P6SM OVC015
     FM221600 17012KT P6SM BKN035 BKN060=

USA.gov is the U.S. government's official web portal to all federal, state and local government web resources and services.